Time;durP1;ratioP1;P1;durP2;ratioP2;P2;SDS_P1;SDS_P2;PMS_P1;PMS_P2;Temp;Humidity;BMP_temperature;BMP_pressure;BME280_temperature;BME280_humidity;BME280_pressure;Samples;Min_cycle;Max_cycle;Signal;HPM_P1;HPM_P2
2023/03/23 00:01:36;;;;;;;0.70;0.70;;;12.30;69.50;;;;;;5007708;28;20656;-69
2023/03/23 00:04:04;;;;;;;0.50;0.50;;;12.30;69.10;;;;;;4990739;28;20725;-70
2023/03/23 00:06:32;;;;;;;0.80;0.80;;;12.30;69.30;;;;;;5007314;28;20644;-69
2023/03/23 00:09:07;;;;;;;0.73;0.73;;;12.30;68.10;;;;;;5006517;28;20722;-69
2023/03/23 00:11:35;;;;;;;1.90;0.90;;;12.30;68.10;;;;;;5006361;28;20696;-69
2023/03/23 00:14:03;;;;;;;1.20;1.07;;;12.30;69.00;;;;;;5007088;28;20624;-70
2023/03/23 00:16:40;;;;;;;1.47;1.17;;;12.30;69.00;;;;;;5007127;28;20673;-69
2023/03/23 00:19:08;;;;;;;1.10;1.00;;;12.30;68.90;;;;;;5006181;28;20672;-69
2023/03/23 00:21:38;;;;;;;1.83;1.40;;;12.30;69.00;;;;;;5006364;28;20670;-69
2023/03/23 00:24:08;;;;;;;1.37;1.07;;;12.30;69.70;;;;;;5006195;28;20694;-69
2023/03/23 00:26:40;;;;;;;1.07;0.97;;;12.30;69.50;;;;;;4994694;28;20652;-69
2023/03/23 00:29:08;;;;;;;2.93;1.00;;;12.30;69.40;;;;;;5006115;28;20656;-69
2023/03/23 00:31:35;;;;;;;2.27;0.60;;;12.30;69.70;;;;;;5007494;28;20652;-69
2023/03/23 00:34:03;;;;;;;0.53;0.53;;;12.30;69.70;;;;;;5007808;28;20659;-69
2023/03/23 00:36:32;;;;;;;1.13;0.83;;;12.30;68.50;;;;;;5009121;28;20655;-70
2023/03/23 00:39:00;;;;;;;0.50;0.40;;;12.30;68.90;;;;;;5009722;28;20675;-69
2023/03/23 00:41:28;;;;;;;0.87;0.80;;;12.30;69.10;;;;;;5010549;28;20656;-69
2023/03/23 00:43:57;;;;;;;1.40;1.03;;;12.70;69.00;;;;;;5010144;28;20687;-69
2023/03/23 00:46:24;;;;;;;2.10;1.73;;;12.20;68.90;;;;;;5009781;28;20643;-68
2023/03/23 00:48:52;;;;;;;0.80;0.67;;;12.40;68.90;;;;;;5010001;28;20632;-68
2023/03/23 00:51:18;;;;;;;0.40;0.37;;;12.30;68.60;;;;;;5009773;28;21216;-69
2023/03/23 00:53:51;;;;;;;1.50;1.10;;;12.30;76.20;;;;;;5009841;28;20636;-68
2023/03/23 00:56:18;;;;;;;1.10;0.63;;;12.30;69.00;;;;;;5009999;28;20644;-68
2023/03/23 00:58:45;;;;;;;0.70;0.70;;;12.30;68.70;;;;;;5009496;28;21018;-69
2023/03/23 01:01:13;;;;;;;1.00;0.60;;;12.20;68.20;;;;;;5010710;28;20980;-69
2023/03/23 01:03:45;;;;;;;1.63;1.53;;;12.30;69.20;;;;;;5009297;28;20627;-68
2023/03/23 01:06:13;;;;;;;1.27;0.90;;;12.20;68.70;;;;;;5009581;28;20663;-69
2023/03/23 01:08:44;;;;;;;4.20;1.67;;;12.20;69.00;;;;;;5009256;28;21502;-69
2023/03/23 01:11:14;;;;;;;1.60;1.00;;;12.20;68.70;;;;;;5010294;28;20754;-69
2023/03/23 01:13:44;;;;;;;1.10;1.00;;;12.30;68.80;;;;;;5009657;28;20616;-67
2023/03/23 01:16:13;;;;;;;2.20;1.87;;;12.30;70.30;;;;;;5008805;28;20653;-69
2023/03/23 01:18:40;;;;;;;0.47;0.47;;;12.20;68.90;;;;;;5009092;28;20677;-69
2023/03/23 01:21:09;;;;;;;1.00;0.60;;;12.20;68.40;;;;;;5009782;28;20753;-68
2023/03/23 01:23:38;;;;;;;0.80;0.80;;;12.20;69.00;;;;;;5009839;28;20639;-68
2023/03/23 01:26:06;;;;;;;0.60;0.60;;;12.20;69.10;;;;;;5008641;28;20667;-68
2023/03/23 01:28:33;;;;;;;0.97;0.93;;;12.20;69.60;;;;;;5008202;28;20628;-69
2023/03/23 01:31:03;;;;;;;0.80;0.80;;;12.10;68.90;;;;;;5010112;28;20703;-69
2023/03/23 01:33:39;;;;;;;0.93;0.77;;;12.20;69.10;;;;;;5009306;28;20658;-69
2023/03/23 01:36:08;;;;;;;1.00;0.90;;;12.20;69.50;;;;;;5009444;28;20683;-69
2023/03/23 01:38:35;;;;;;;0.97;0.97;;;12.20;69.70;;;;;;5008903;28;20671;-69
2023/03/23 01:41:03;;;;;;;1.47;1.13;;;12.10;69.60;;;;;;5009091;28;20656;-69
2023/03/23 01:43:35;;;;;;;1.07;0.93;;;12.20;69.40;;;;;;5009024;28;20643;-69
2023/03/23 01:46:02;;;;;;;1.03;0.93;;;12.10;69.60;;;;;;5008247;28;21018;-69
2023/03/23 01:48:33;;;;;;;1.03;0.80;;;12.10;69.20;;;;;;5008218;28;20623;-69
2023/03/23 01:51:05;;;;;;;1.30;0.97;;;12.10;70.00;;;;;;5008619;28;20664;-68
2023/03/23 01:53:39;;;;;;;1.43;1.33;;;12.10;70.10;;;;;;4997281;28;20634;-68
2023/03/23 01:56:11;;;;;;;1.60;1.20;;;12.10;69.30;;;;;;5008312;28;21229;-69
2023/03/23 01:58:41;;;;;;;1.27;1.10;;;12.10;69.40;;;;;;5008626;28;20668;-68
2023/03/23 02:01:12;;;;;;;1.07;0.90;;;12.10;69.20;;;;;;5009260;28;20659;-69
2023/03/23 02:03:44;;;;;;;1.33;1.23;;;12.10;69.70;;;;;;5004260;28;20637;-69
2023/03/23 02:06:12;;;;;;;0.60;0.50;;;12.10;69.60;;;;;;5006591;28;21217;-68
2023/03/23 02:08:42;;;;;;;1.00;1.00;;;12.10;69.80;;;;;;5007414;28;20634;-69
2023/03/23 02:11:23;;;;;;;0.83;0.80;;;12.10;69.80;;;;;;5009316;28;20676;-69
2023/03/23 02:13:51;;;;;;;1.10;0.97;;;12.20;69.70;;;;;;5008452;28;20680;-69
2023/03/23 02:16:31;;;;;;;0.70;0.70;;;12.20;69.30;;;;;;5008139;28;20865;-68
2023/03/23 02:19:29;;;;;;;0.83;0.83;;;12.30;69.70;;;;;;5007958;28;20738;-68
2023/03/23 02:22:37;;;;;;;0.80;0.63;;;12.20;69.70;;;;;;5006595;28;20668;-69
2023/03/23 02:25:28;;;;;;;1.13;1.00;;;12.20;70.00;;;;;;5007784;28;20631;-69
2023/03/23 02:28:17;;;;;;;1.63;0.73;;;12.20;70.20;;;;;;5008322;28;20720;-68
2023/03/23 02:31:01;;;;;;;0.47;0.40;;;12.20;75.90;;;;;;5006625;28;20660;-69
2023/03/23 02:33:39;;;;;;;0.73;0.73;;;12.20;70.50;;;;;;5008489;28;20613;-68
2023/03/23 02:36:15;;;;;;;1.20;1.10;;;12.20;69.90;;;;;;5007812;28;20662;-69
2023/03/23 02:38:50;;;;;;;2.30;0.83;;;12.20;70.60;;;;;;5007946;28;21046;-68
2023/03/23 02:41:30;;;;;;;1.03;0.80;;;12.20;70.50;;;;;;5008183;28;20682;-69
2023/03/23 02:43:59;;;;;;;0.90;0.70;;;12.20;70.50;;;;;;5008788;28;20635;-69
2023/03/23 02:46:28;;;;;;;0.93;0.67;;;12.10;71.10;;;;;;5008664;28;21031;-69
2023/03/23 02:49:01;;;;;;;1.40;1.10;;;12.10;71.90;;;;;;5008191;28;20670;-68
2023/03/23 02:51:30;;;;;;;0.70;0.67;;;12.10;71.80;;;;;;5007993;28;20652;-69
2023/03/23 02:53:58;;;;;;;1.30;1.20;;;12.10;71.50;;;;;;5007345;28;20632;-70
2023/03/23 02:56:28;;;;;;;0.60;0.60;;;12.10;71.70;;;;;;5003533;28;20683;-71
2023/03/23 02:58:57;;;;;;;3.30;0.93;;;12.00;71.90;;;;;;5006081;28;20687;-69
2023/03/23 03:01:52;;;;;;;0.60;0.60;;;12.00;71.80;;;;;;5008045;28;21248;-69
2023/03/23 03:04:26;;;;;;;0.90;0.90;;;12.00;72.00;;;;;;5007507;28;20640;-70
2023/03/23 03:07:07;;;;;;;0.60;0.60;;;12.00;72.20;;;;;;5007780;28;20747;-69
2023/03/23 03:09:43;;;;;;;1.60;1.50;;;12.00;72.10;;;;;;4993056;28;20678;-69
2023/03/23 03:12:15;;;;;;;1.00;0.90;;;12.00;72.40;;;;;;5007825;28;20679;-69
2023/03/23 03:14:48;;;;;;;0.93;0.70;;;12.00;72.20;;;;;;5007575;28;20704;-69
2023/03/23 03:17:22;;;;;;;0.63;0.57;;;12.10;72.20;;;;;;5008569;28;21270;-69
2023/03/23 03:19:56;;;;;;;0.80;0.60;;;12.00;71.80;;;;;;5006735;28;20664;-68
2023/03/23 03:22:28;;;;;;;0.60;0.60;;;12.10;72.20;;;;;;5007612;28;20662;-68
2023/03/23 03:24:58;;;;;;;1.50;1.40;;;12.10;71.40;;;;;;5007537;28;20858;-69
2023/03/23 03:27:26;;;;;;;0.50;0.50;;;12.10;71.40;;;;;;5006868;28;20640;-69
2023/03/23 03:30:06;;;;;;;1.37;1.00;;;12.10;71.30;;;;;;5006909;28;20660;-68
2023/03/23 03:32:42;;;;;;;0.83;0.83;;;12.10;71.70;;;;;;5007455;28;21204;-69
2023/03/23 03:35:12;;;;;;;0.60;0.60;;;12.10;71.20;;;;;;5006806;28;20654;-69
2023/03/23 03:37:40;;;;;;;0.80;0.80;;;12.10;71.50;;;;;;5007478;28;20661;-70
2023/03/23 03:40:11;;;;;;;0.93;0.90;;;12.20;71.70;;;;;;5006416;28;20668;-67
2023/03/23 03:42:40;;;;;;;0.67;0.67;;;12.20;70.90;;;;;;5007543;28;20663;-69
2023/03/23 03:45:09;;;;;;;0.93;0.93;;;12.20;71.80;;;;;;5007296;28;20672;-69
2023/03/23 03:47:37;;;;;;;0.70;0.63;;;12.20;72.40;;;;;;5007630;28;20624;-69
2023/03/23 03:50:05;;;;;;;0.90;0.80;;;12.30;72.30;;;;;;5006469;28;20675;-71
2023/03/23 03:52:35;;;;;;;0.70;0.70;;;12.20;72.80;;;;;;5006481;28;20628;-69
2023/03/23 03:55:04;;;;;;;1.40;1.30;;;12.20;72.50;;;;;;5007199;28;20806;-68
2023/03/23 03:57:33;;;;;;;3.40;1.10;;;12.20;72.50;;;;;;5007321;28;20672;-69
2023/03/23 04:00:00;;;;;;;0.93;0.93;;;12.20;72.60;;;;;;5005474;28;20660;-69
2023/03/23 04:02:35;;;;;;;1.03;0.93;;;12.20;71.90;;;;;;4996186;28;20690;-69
2023/03/23 04:05:03;;;;;;;1.33;1.13;;;11.90;79.40;;;;;;5006020;28;20629;-69
2023/03/23 04:07:33;;;;;;;1.20;1.10;;;12.20;72.30;;;;;;5006190;28;20636;-68
2023/03/23 04:10:09;;;;;;;0.70;0.70;;;12.30;72.50;;;;;;5010723;28;20640;-69
2023/03/23 04:12:37;;;;;;;0.80;0.80;;;12.20;72.70;;;;;;5010731;28;20694;-69
2023/03/23 04:15:05;;;;;;;1.03;0.80;;;12.20;73.80;;;;;;5010472;28;20640;-69
2023/03/23 04:17:32;;;;;;;0.50;0.40;;;12.20;73.20;;;;;;5010078;28;20634;-68
2023/03/23 04:20:11;;;;;;;1.10;1.00;;;12.20;72.30;;;;;;5010408;28;20660;-69
2023/03/23 04:22:43;;;;;;;0.60;0.60;;;12.10;73.50;;;;;;5010794;28;20643;-69
2023/03/23 04:25:12;;;;;;;0.90;0.90;;;12.10;74.30;;;;;;5011019;28;20723;-69
2023/03/23 04:27:52;;;;;;;0.80;0.80;;;12.20;72.70;;;;;;5010362;28;20667;-69
2023/03/23 04:30:20;;;;;;;0.70;0.70;;;12.20;73.30;;;;;;5009679;28;20620;-69
2023/03/23 04:32:50;;;;;;;1.10;1.00;;;12.20;73.00;;;;;;4998506;28;20647;-69
2023/03/23 04:35:17;;;;;;;1.23;0.97;;;12.20;73.30;;;;;;5010114;28;20639;-69
2023/03/23 04:37:47;;;;;;;0.70;0.70;;;12.20;73.50;;;;;;5010900;28;21065;-68
2023/03/23 04:40:15;;;;;;;0.60;0.60;;;12.20;73.70;;;;;;4994565;28;20763;-69
2023/03/23 04:42:45;;;;;;;1.00;1.00;;;12.20;74.40;;;;;;5010179;28;21018;-69
2023/03/23 04:45:14;;;;;;;0.77;0.70;;;12.10;75.70;;;;;;5009779;28;20632;-69
2023/03/23 04:47:52;;;;;;;0.63;0.63;;;12.20;73.50;;;;;;5010843;28;20628;-68
2023/03/23 04:50:20;;;;;;;1.30;1.17;;;12.20;74.00;;;;;;4990217;28;20636;-69
2023/03/23 04:52:51;;;;;;;0.93;0.93;;;12.20;74.50;;;;;;5002693;28;20727;-70
2023/03/23 04:55:20;;;;;;;1.00;0.97;;;12.20;74.00;;;;;;4991174;28;20636;-69
2023/03/23 04:57:47;;;;;;;0.60;0.60;;;12.30;74.30;;;;;;5005647;28;20624;-68
2023/03/23 05:00:16;;;;;;;1.57;0.93;;;12.20;74.50;;;;;;5009744;28;20967;-69
2023/03/23 05:02:43;;;;;;;0.90;0.60;;;12.30;73.40;;;;;;5009768;28;20640;-68
2023/03/23 05:05:12;;;;;;;0.93;0.67;;;12.20;74.90;;;;;;5009960;28;20632;-69
2023/03/23 05:07:40;;;;;;;0.80;0.80;;;12.20;74.40;;;;;;5010146;28;20739;-69
2023/03/23 05:10:11;;;;;;;2.20;1.27;;;12.20;75.40;;;;;;5009603;28;20674;-69
2023/03/23 05:12:37;;;;;;;1.10;1.00;;;12.20;76.10;;;;;;5009407;28;20620;-69
2023/03/23 05:15:06;;;;;;;0.73;0.73;;;12.10;77.90;;;;;;5009515;28;20655;-68
2023/03/23 05:17:36;;;;;;;1.00;0.80;;;12.10;76.90;;;;;;5010279;28;20655;-68
2023/03/23 05:20:08;;;;;;;1.23;0.77;;;12.30;80.70;;;;;;5007657;28;20672;-70
2023/03/23 05:22:36;;;;;;;1.03;0.87;;;12.20;75.50;;;;;;5009272;28;20643;-68
2023/03/23 05:25:04;;;;;;;1.33;1.23;;;12.30;74.70;;;;;;5009915;28;20632;-69
2023/03/23 05:27:42;;;;;;;1.20;0.70;;;12.30;74.70;;;;;;5009904;28;20631;-68
2023/03/23 05:30:10;;;;;;;0.97;0.97;;;12.30;73.90;;;;;;5007901;28;20736;-70
2023/03/23 05:32:37;;;;;;;0.90;0.60;;;12.40;73.90;;;;;;5009042;28;20678;-69
2023/03/23 05:35:12;;;;;;;0.63;0.63;;;12.40;73.90;;;;;;5009319;28;21248;-69
2023/03/23 05:37:39;;;;;;;1.53;1.43;;;12.40;73.50;;;;;;5009412;28;20957;-69
2023/03/23 05:40:07;;;;;;;5.93;1.90;;;12.40;74.10;;;;;;5009292;28;20677;-69
2023/03/23 05:42:35;;;;;;;4.23;1.27;;;12.40;73.60;;;;;;5009098;28;20616;-69
2023/03/23 05:45:12;;;;;;;1.17;0.57;;;12.50;73.70;;;;;;5008772;28;20698;-69
2023/03/23 05:47:39;;;;;;;0.77;0.77;;;12.50;73.60;;;;;;5009352;28;20651;-69
2023/03/23 05:50:08;;;;;;;3.33;1.00;;;12.50;73.90;;;;;;5008366;28;20628;-69
2023/03/23 05:52:36;;;;;;;1.13;1.00;;;12.50;73.90;;;;;;5008302;28;20682;-69
2023/03/23 05:55:06;;;;;;;1.37;0.80;;;12.50;73.60;;;;;;5009423;28;20615;-68
2023/03/23 05:57:33;;;;;;;0.83;0.83;;;12.50;73.90;;;;;;5008760;28;20660;-68
2023/03/23 05:59:59;;;;;;;3.17;0.83;;;12.50;73.80;;;;;;5008883;28;20664;-69
2023/03/23 06:02:29;;;;;;;2.03;0.90;;;12.50;73.80;;;;;;5007506;28;20650;-71
2023/03/23 06:04:59;;;;;;;0.77;0.77;;;12.60;73.70;;;;;;5008766;28;21024;-68
2023/03/23 06:07:26;;;;;;;1.40;0.73;;;12.70;73.20;;;;;;5009206;28;20691;-71
2023/03/23 06:09:53;;;;;;;2.00;1.80;;;12.70;73.50;;;;;;5006645;28;20766;-69
2023/03/23 06:12:20;;;;;;;1.50;1.30;;;12.70;73.60;;;;;;5008799;28;20225;-69
2023/03/23 06:14:48;;;;;;;1.87;1.47;;;12.80;73.20;;;;;;4999975;28;21010;-69
2023/03/23 06:17:16;;;;;;;1.03;0.73;;;12.70;73.20;;;;;;5009045;28;21290;-68
2023/03/23 06:19:45;;;;;;;0.80;0.80;;;12.80;72.90;;;;;;5007840;28;20663;-68
2023/03/23 06:22:12;;;;;;;2.70;0.83;;;12.80;73.30;;;;;;5008382;28;20676;-69
2023/03/23 06:24:39;;;;;;;0.70;0.53;;;12.80;73.80;;;;;;5008684;28;20732;-69
2023/03/23 06:27:06;;;;;;;0.70;0.70;;;12.80;72.80;;;;;;5008793;28;20678;-69
2023/03/23 06:29:33;;;;;;;0.97;0.97;;;12.80;73.10;;;;;;5007560;28;20628;-68
2023/03/23 06:32:03;;;;;;;0.90;0.90;;;12.80;73.60;;;;;;5005715;28;20651;-70
2023/03/23 06:34:30;;;;;;;1.10;0.67;;;12.80;73.90;;;;;;5012737;28;20619;-69
2023/03/23 06:37:05;;;;;;;0.80;0.80;;;12.90;74.00;;;;;;5010478;28;20702;-69
2023/03/23 06:39:32;;;;;;;3.03;1.10;;;12.80;73.60;;;;;;4994093;28;21390;-69
2023/03/23 06:42:00;;;;;;;4.00;0.93;;;12.80;76.00;;;;;;5015385;28;20863;-69
2023/03/23 06:44:26;;;;;;;0.67;0.67;;;12.70;74.20;;;;;;5005833;28;20695;-69
2023/03/23 06:46:58;;;;;;;1.07;0.90;;;12.80;76.60;;;;;;5012045;28;20656;-69
2023/03/23 06:49:25;;;;;;;0.87;0.87;;;12.90;74.30;;;;;;5007304;28;21360;-70
2023/03/23 06:51:52;;;;;;;1.27;1.10;;;12.90;73.20;;;;;;5008841;28;20652;-69
2023/03/23 06:54:20;;;;;;;2.00;0.77;;;13.00;72.90;;;;;;5007820;28;20724;-69
2023/03/23 06:56:47;;;;;;;1.63;1.50;;;13.10;73.20;;;;;;5008115;28;20656;-69
2023/03/23 06:59:19;;;;;;;1.00;0.90;;;13.10;73.50;;;;;;5007589;28;20655;-69
2023/03/23 07:01:46;;;;;;;1.20;1.10;;;13.20;74.00;;;;;;5007635;28;20807;-69
2023/03/23 07:04:13;;;;;;;0.90;0.90;;;13.40;79.50;;;;;;5006615;28;20624;-69
2023/03/23 07:06:40;;;;;;;1.00;0.67;;;13.30;73.30;;;;;;5008261;28;20767;-69
2023/03/23 07:09:07;;;;;;;1.00;1.00;;;13.30;73.40;;;;;;5007939;28;20632;-71
2023/03/23 07:11:35;;;;;;;1.53;1.43;;;13.40;72.80;;;;;;5006407;28;20747;-71
2023/03/23 07:14:02;;;;;;;1.17;1.00;;;13.50;73.00;;;;;;5007981;28;20632;-69
2023/03/23 07:16:29;;;;;;;1.23;1.13;;;13.50;72.60;;;;;;5006525;28;21018;-70
2023/03/23 07:18:57;;;;;;;1.67;1.30;;;13.40;72.20;;;;;;5007228;28;20633;-69
2023/03/23 07:21:31;;;;;;;1.40;1.27;;;13.50;72.10;;;;;;5006702;28;20671;-69
2023/03/23 07:23:57;;;;;;;0.80;0.80;;;13.50;72.30;;;;;;5007667;28;21259;-69
2023/03/23 07:26:25;;;;;;;1.30;1.20;;;13.50;72.80;;;;;;5007214;28;21236;-69
2023/03/23 07:28:53;;;;;;;0.93;0.90;;;13.50;73.10;;;;;;5007204;28;20735;-70
2023/03/23 07:31:22;;;;;;;0.80;0.70;;;13.50;73.50;;;;;;5006993;28;21082;-69
2023/03/23 07:33:54;;;;;;;1.27;1.17;;;13.50;72.30;;;;;;5007469;28;20624;-70
2023/03/23 07:36:21;;;;;;;0.73;0.73;;;13.50;74.10;;;;;;5007595;28;20668;-69
2023/03/23 07:38:48;;;;;;;0.73;0.67;;;13.40;73.70;;;;;;5007238;28;21228;-69
2023/03/23 07:41:15;;;;;;;1.10;1.03;;;13.50;73.50;;;;;;5007151;28;20667;-69
2023/03/23 07:43:44;;;;;;;0.90;0.80;;;13.80;75.70;;;;;;5004452;28;20625;-70
2023/03/23 07:46:12;;;;;;;1.23;0.63;;;13.60;72.30;;;;;;5006606;28;20862;-69
2023/03/23 07:48:40;;;;;;;0.70;0.60;;;13.70;72.20;;;;;;5003441;28;20631;-70
2023/03/23 07:51:08;;;;;;;1.43;1.33;;;13.70;72.80;;;;;;5004684;28;21426;-69
2023/03/23 07:53:35;;;;;;;1.53;1.30;;;13.80;72.60;;;;;;5005855;28;20635;-70
2023/03/23 07:56:06;;;;;;;4.43;1.00;;;13.80;73.00;;;;;;5005695;28;20666;-70
2023/03/23 07:58:34;;;;;;;1.10;1.00;;;13.90;73.80;;;;;;5005814;28;20656;-70
2023/03/23 08:01:01;;;;;;;1.20;1.00;;;14.00;73.20;;;;;;5003971;28;20676;-69
2023/03/23 08:03:29;;;;;;;0.97;0.97;;;14.10;73.20;;;;;;4998925;28;20631;-69
2023/03/23 08:57:36;;;;;;;1.87;1.20;;;14.70;75.40;;;;;;4966874;28;20630;-70
2023/03/23 09:00:13;;;;;;;1.33;1.13;;;14.60;75.90;;;;;;5001463;28;20667;-69
2023/03/23 09:02:43;;;;;;;1.60;1.40;;;14.70;76.20;;;;;;5009365;28;20707;-70
2023/03/23 09:12:33;;;;;;;0.40;0.40;;;15.10;76.60;;;;;;5009122;28;20751;-69
2023/03/23 09:15:05;;;;;;;1.73;0.80;;;15.10;75.20;;;;;;5009895;28;20624;-69
2023/03/23 09:17:32;;;;;;;1.37;0.80;;;15.20;76.00;;;;;;5007408;28;20637;-69
2023/03/23 09:19:59;;;;;;;1.63;0.90;;;15.20;75.30;;;;;;5008382;28;20679;-69
2023/03/23 09:22:25;;;;;;;1.90;1.30;;;15.20;75.30;;;;;;5009098;28;21121;-69
2023/03/23 09:24:52;;;;;;;2.60;1.13;;;15.20;75.40;;;;;;5008981;28;20632;-69
2023/03/23 19:59:40;;;;;;;1.43;1.33;;;14.30;75.40;;;;;;4995129;28;20623;-72
2023/03/23 20:09:40;;;;;;;2.67;1.63;;;14.20;75.80;;;;;;4983946;28;20630;-69
2023/03/23 20:12:07;;;;;;;1.93;1.73;;;14.20;76.10;;;;;;5001067;28;20661;-70
2023/03/23 20:14:36;;;;;;;2.67;1.30;;;14.20;76.30;;;;;;5006573;28;20674;-69
2023/03/23 20:17:03;;;;;;;1.27;1.17;;;14.20;76.10;;;;;;5006703;28;20761;-69
2023/03/23 20:19:30;;;;;;;1.60;1.50;;;14.30;75.90;;;;;;5005869;28;20636;-69
2023/03/23 20:25:44;;;;;;;2.20;1.60;;;14.20;76.30;;;;;;5005054;28;20642;-69
2023/03/23 20:28:34;;;;;;;1.57;1.43;;;14.20;76.30;;;;;;5004875;28;20631;-69
2023/03/23 20:34:29;;;;;;;1.40;1.30;;;14.10;76.90;;;;;;4970591;28;21045;-69
2023/03/23 20:40:44;;;;;;;1.20;1.10;;;14.00;77.20;;;;;;5006813;28;20682;-69
2023/03/23 20:43:35;;;;;;;4.60;1.37;;;14.00;77.50;;;;;;5007747;28;21294;-69
2023/03/23 20:46:13;;;;;;;2.40;1.53;;;14.00;77.50;;;;;;5006618;28;20644;-69
2023/03/23 20:49:04;;;;;;;0.90;0.90;;;14.00;77.20;;;;;;5007041;28;20604;-70
2023/03/23 20:55:41;;;;;;;2.33;1.20;;;14.00;77.50;;;;;;5010240;28;21042;-70
2023/03/23 20:58:36;;;;;;;1.43;1.33;;;14.00;77.40;;;;;;5010780;28;20614;-68
2023/03/23 21:01:05;;;;;;;1.60;1.50;;;13.90;77.20;;;;;;5009915;28;20683;-68
2023/03/23 21:03:40;;;;;;;1.57;1.47;;;13.90;77.80;;;;;;5011203;28;21106;-69
2023/03/23 21:06:09;;;;;;;5.20;1.23;;;13.90;77.60;;;;;;5010125;28;21212;-70
2023/03/23 21:08:38;;;;;;;1.87;1.37;;;13.90;77.40;;;;;;5010429;28;21164;-70
2023/03/23 21:15:04;;;;;;;1.83;1.27;;;13.80;77.70;;;;;;4988404;28;20765;-68
2023/03/23 21:21:10;;;;;;;1.27;1.23;;;13.80;78.30;;;;;;5008732;28;20729;-68
2023/03/23 21:23:37;;;;;;;1.17;0.80;;;13.80;78.00;;;;;;5009792;28;20620;-70
2023/03/23 21:26:10;;;;;;;2.33;2.13;;;13.80;78.20;;;;;;5008834;28;20655;-68
2023/03/23 21:28:37;;;;;;;2.43;1.93;;;13.80;78.40;;;;;;5007158;28;20632;-71
2023/03/23 21:31:07;;;;;;;2.20;2.00;;;13.80;78.40;;;;;;5017086;28;20658;-69
2023/03/23 21:33:35;;;;;;;2.23;1.33;;;13.80;78.50;;;;;;5008777;28;20608;-70
2023/03/23 21:36:13;;;;;;;1.70;1.17;;;13.70;78.10;;;;;;5007926;28;20763;-70
2023/03/23 21:45:02;;;;;;;2.27;1.47;;;13.70;78.70;;;;;;5009104;28;20659;-69
2023/03/23 21:47:29;;;;;;;2.33;2.13;;;13.70;79.30;;;;;;5008687;28;21013;-69
2023/03/23 21:50:03;;;;;;;1.17;1.07;;;13.70;78.90;;;;;;5007805;28;20631;-68
2023/03/23 21:56:13;;;;;;;1.03;1.03;;;13.60;78.90;;;;;;5011776;28;20743;-68
2023/03/23 22:05:02;;;;;;;0.70;0.70;;;13.50;79.30;;;;;;5007784;28;21234;-69
2023/03/23 22:07:32;;;;;;;1.50;1.37;;;13.50;79.50;;;;;;5012187;28;22235;-69
2023/03/23 22:10:07;;;;;;;2.63;1.67;;;13.50;79.80;;;;;;5009165;28;20643;-71
2023/03/23 22:12:38;;;;;;;1.70;1.60;;;13.50;79.90;;;;;;5011658;28;20631;-72
2023/03/23 22:15:08;;;;;;;1.90;1.33;;;13.50;80.10;;;;;;5008561;28;21249;-72
2023/03/23 22:17:37;;;;;;;2.40;2.10;;;13.40;80.80;;;;;;5009082;28;20629;-72
2023/03/23 22:20:14;;;;;;;1.13;1.03;;;13.40;81.30;;;;;;5008364;28;20678;-72
2023/03/23 22:22:50;;;;;;;2.90;1.70;;;13.30;82.70;;;;;;5008495;28;20670;-72
2023/03/23 22:25:27;;;;;;;1.40;1.20;;;13.30;82.00;;;;;;5008197;28;20631;-73
2023/03/23 22:28:02;;;;;;;1.20;1.10;;;13.20;82.50;;;;;;5008252;28;20677;-72
2023/03/23 22:30:34;;;;;;;2.20;2.00;;;13.20;82.00;;;;;;5002807;28;20698;-70
2023/03/23 22:33:02;;;;;;;1.60;1.17;;;13.20;82.20;;;;;;5008698;28;20636;-72
2023/03/23 22:35:33;;;;;;;1.90;1.27;;;13.20;82.30;;;;;;5007937;28;20640;-72
2023/03/23 22:38:13;;;;;;;1.10;1.00;;;13.20;82.50;;;;;;5008312;28;20636;-72
2023/03/23 22:40:45;;;;;;;1.37;1.00;;;13.20;84.30;;;;;;4996610;28;20655;-72
2023/03/23 22:43:15;;;;;;;5.67;1.80;;;13.20;86.20;;;;;;5008480;28;20616;-71
2023/03/23 22:45:45;;;;;;;1.03;0.97;;;13.20;84.90;;;;;;4988401;28;21236;-71
2023/03/23 22:48:17;;;;;;;1.67;1.30;;;13.20;86.60;;;;;;5003825;28;20720;-72
2023/03/23 22:50:47;;;;;;;1.83;1.40;;;13.10;84.60;;;;;;5007319;28;20757;-72
2023/03/23 22:53:18;;;;;;;1.03;0.90;;;12.90;86.50;;;;;;5008449;28;20628;-70
2023/03/23 22:55:47;;;;;;;2.63;1.97;;;12.90;88.20;;;;;;5007289;28;20699;-70
2023/03/23 22:58:23;;;;;;;1.13;1.10;;;12.80;89.30;;;;;;5006762;28;20624;-71
2023/03/23 23:01:00;;;;;;;1.83;1.70;;;12.80;88.00;;;;;;5006038;28;20660;-71
2023/03/23 23:03:33;;;;;;;1.80;1.10;;;12.90;88.60;;;;;;5007668;28;20628;-71
2023/03/23 23:06:03;;;;;;;1.40;1.30;;;12.90;88.90;;;;;;5007843;28;20760;-69
2023/03/23 23:08:32;;;;;;;1.27;1.23;;;12.90;87.10;;;;;;5006590;28;20636;-69
2023/03/23 23:11:03;;;;;;;1.83;1.73;;;12.90;87.40;;;;;;5016356;28;20663;-69
2023/03/23 23:13:41;;;;;;;1.37;1.13;;;13.00;88.50;;;;;;5026589;28;20658;-68
2023/03/23 23:16:11;;;;;;;1.97;1.37;;;12.90;88.10;;;;;;5006698;28;20698;-68
2023/03/23 23:18:40;;;;;;;1.60;1.50;;;12.90;86.80;;;;;;5005464;28;20612;-69
2023/03/23 23:21:14;;;;;;;1.20;1.20;;;12.90;88.70;;;;;;5005622;28;20803;-68
2023/03/23 23:33:37;;;;;;;1.90;1.30;;;12.80;89.60;;;;;;4970749;28;20778;-68
2023/03/23 23:36:05;;;;;;;1.67;1.57;;;12.70;90.50;;;;;;4986894;28;20640;-70
2023/03/23 23:38:32;;;;;;;2.20;1.27;;;12.80;90.50;;;;;;5004908;28;20656;-69
2023/03/23 23:40:59;;;;;;;1.70;0.90;;;12.80;90.00;;;;;;5007058;28;20648;-70
2023/03/23 23:43:25;;;;;;;1.47;1.37;;;12.90;88.40;;;;;;5006635;28;20755;-70
2023/03/23 23:45:55;;;;;;;1.90;1.30;;;12.90;90.30;;;;;;5007142;28;20676;-70
2023/03/23 23:48:22;;;;;;;1.37;1.27;;;13.00;90.60;;;;;;5005877;28;20635;-69
2023/03/23 23:50:50;;;;;;;1.03;1.00;;;12.90;91.50;;;;;;5007351;28;20684;-69
2023/03/23 23:53:21;;;;;;;1.60;1.40;;;12.90;91.40;;;;;;5007460;28;20728;-70
2023/03/23 23:55:48;;;;;;;1.23;0.90;;;13.00;91.80;;;;;;5007118;28;20659;-69
2023/03/23 23:58:15;;;;;;;1.80;1.63;;;12.90;91.90;;;;;;5005999;28;20667;-70
